createdAt,value
2022-09-15T00:05:55.482Z,2.5
2022-09-15T00:11:54.574Z,2.4
2022-09-15T00:17:55.157Z,2.4
2022-09-15T00:23:54.982Z,2.6
2022-09-15T00:29:54.524Z,2.5
2022-09-15T00:35:54.447Z,2.6
2022-09-15T00:41:56.916Z,2.6
2022-09-15T00:47:54.558Z,2.6
2022-09-15T00:53:54.224Z,2.7
2022-09-15T00:59:54.705Z,2.7
2022-09-15T01:05:55.094Z,2.8
2022-09-15T01:11:55.641Z,2.8
2022-09-15T01:17:54.362Z,2.9
2022-09-15T01:23:53.939Z,2.9
2022-09-15T01:29:53.971Z,2.9
2022-09-15T01:35:54.263Z,3
2022-09-15T01:41:54.518Z,3
2022-09-15T01:47:57.000Z,3
2022-09-15T01:53:55.734Z,2.9
2022-09-15T01:59:54.619Z,2.9
2022-09-15T02:05:55.132Z,2.8
2022-09-15T02:11:54.137Z,2.7
2022-09-15T02:17:54.119Z,2.7
2022-09-15T02:23:54.350Z,2.7
2022-09-15T02:29:54.383Z,2.7
2022-09-15T02:35:54.321Z,2.7
2022-09-15T02:41:54.467Z,2.7
2022-09-15T02:47:54.710Z,2.7
2022-09-15T02:53:54.903Z,2.7
2022-09-15T02:59:54.378Z,2.8
2022-09-15T03:05:55.060Z,2.7
2022-09-15T03:11:54.668Z,2.7
2022-09-15T03:17:54.577Z,2.7
2022-09-15T03:23:54.979Z,2.8
2022-09-15T03:29:54.637Z,2.7
2022-09-15T03:35:54.753Z,2.7
2022-09-15T03:41:54.750Z,2.8
2022-09-15T03:47:54.868Z,2.9
2022-09-15T03:53:54.840Z,3
2022-09-15T03:59:54.314Z,3
2022-09-15T04:05:54.764Z,3
2022-09-15T04:11:54.627Z,3
2022-09-15T04:17:54.923Z,3
2022-09-15T04:23:54.402Z,3.1
2022-09-15T04:29:54.333Z,3.2
2022-09-15T04:35:54.595Z,3.2
2022-09-15T04:41:54.694Z,3
2022-09-15T04:47:55.042Z,2.9
2022-09-15T04:53:54.640Z,2.9
2022-09-15T04:59:54.464Z,3
2022-09-15T05:05:55.118Z,3
2022-09-15T05:11:54.842Z,3.1
2022-09-15T05:17:54.325Z,3.1
2022-09-15T05:23:54.608Z,3.1
2022-09-15T05:30:09.967Z,3.1
2022-09-15T05:35:54.885Z,3
2022-09-15T05:41:54.479Z,2.9
2022-09-15T05:47:55.154Z,2.9
2022-09-15T05:53:54.728Z,2.8
2022-09-15T05:59:54.956Z,2.7
2022-09-15T06:05:54.635Z,2.6
2022-09-15T06:11:54.479Z,2.7
2022-09-15T06:17:54.795Z,2.7
2022-09-15T06:23:54.756Z,2.8
2022-09-15T06:29:54.758Z,2.8
2022-09-15T06:35:54.353Z,2.9
2022-09-15T06:42:03.681Z,2.9
2022-09-15T06:48:13.321Z,2.9
2022-09-15T06:53:54.340Z,3
2022-09-15T06:59:54.616Z,2.9
2022-09-15T07:05:54.390Z,2.9
2022-09-15T07:11:54.665Z,3
2022-09-15T07:17:55.322Z,3
2022-09-15T07:23:54.557Z,3
2022-09-15T07:29:54.699Z,3.1
2022-09-15T07:35:55.438Z,3.2
2022-09-15T07:41:54.591Z,3.3
2022-09-15T07:47:54.529Z,3.4
2022-09-15T07:53:54.593Z,3.4
2022-09-15T07:59:55.029Z,3.4
2022-09-15T08:05:54.474Z,3.5
2022-09-15T08:11:55.757Z,3.7
2022-09-15T08:17:54.458Z,3.9
2022-09-15T08:23:54.570Z,3.9
2022-09-15T08:29:54.645Z,3.9
2022-09-15T08:35:54.647Z,4.1
2022-09-15T08:41:55.146Z,4
2022-09-15T08:47:54.262Z,3.9
2022-09-15T08:53:54.500Z,4.3
2022-09-15T08:59:55.289Z,4.4
2022-09-15T09:05:54.029Z,4.4
2022-09-15T09:11:54.772Z,4.4
2022-09-15T09:17:54.541Z,4.3
2022-09-15T09:23:54.202Z,4.6
2022-09-15T09:29:54.343Z,4.5
2022-09-15T09:35:54.187Z,4.6
2022-09-15T09:41:55.553Z,4.9
2022-09-15T09:47:57.292Z,4.8
2022-09-15T09:53:55.648Z,5.5
2022-09-15T09:59:54.903Z,6
2022-09-15T10:05:54.249Z,5.8
2022-09-15T10:11:55.512Z,5.4
2022-09-15T10:17:54.411Z,5.3
2022-09-15T10:23:54.594Z,5.5
2022-09-15T10:29:54.711Z,5.4
2022-09-15T10:35:54.275Z,5.9
2022-09-15T10:41:54.246Z,6.3
2022-09-15T10:47:54.052Z,6.2
2022-09-15T10:53:57.326Z,6.4
2022-09-15T10:59:54.200Z,7.2
2022-09-15T11:05:54.108Z,7
2022-09-15T11:11:54.273Z,7
2022-09-15T11:17:54.066Z,6.8
2022-09-15T11:23:54.193Z,6.8
2022-09-15T11:29:54.433Z,6.8
2022-09-15T11:35:54.964Z,7
2022-09-15T11:41:54.173Z,7.5
2022-09-15T11:47:54.296Z,7.3
2022-09-15T11:53:54.284Z,7.8
2022-09-15T11:59:54.088Z,7.8
2022-09-15T12:05:54.432Z,8.1
2022-09-15T12:11:55.151Z,7.4
2022-09-15T12:17:54.492Z,7.5
2022-09-15T12:23:54.119Z,7.7
2022-09-15T12:29:54.459Z,7.8
2022-09-15T12:35:54.347Z,7.7
2022-09-15T12:41:54.330Z,7.7
2022-09-15T12:47:54.373Z,7.8
2022-09-15T12:53:54.974Z,7.9
2022-09-15T12:59:54.781Z,7.7
2022-09-15T13:05:54.080Z,8.3
2022-09-15T13:11:54.072Z,9.1
2022-09-15T13:17:54.143Z,9.3
2022-09-15T13:23:54.347Z,9.5
2022-09-15T13:29:54.440Z,9.5
2022-09-15T13:35:54.131Z,9.5
2022-09-15T13:41:54.001Z,9.5
2022-09-15T13:47:54.052Z,8.9
2022-09-15T13:53:54.150Z,8.9
2022-09-15T13:59:54.765Z,8.7
2022-09-15T14:05:54.625Z,9.1
2022-09-15T14:11:54.710Z,8.4
2022-09-15T14:17:54.831Z,8.6
2022-09-15T14:23:54.448Z,8.5
2022-09-15T14:29:54.349Z,8.2
2022-09-15T14:35:54.444Z,8.2
2022-09-15T14:41:54.497Z,8
2022-09-15T14:47:54.191Z,8.2
2022-09-15T14:53:54.760Z,8.2
2022-09-15T14:59:54.318Z,8.2
2022-09-15T15:06:02.317Z,7.8
2022-09-15T15:11:54.386Z,7.3
2022-09-15T15:17:54.444Z,7.2
2022-09-15T15:23:54.640Z,7.1
2022-09-15T15:29:54.247Z,7.1
2022-09-15T15:35:54.731Z,7
2022-09-15T15:41:54.471Z,6.9
2022-09-15T15:47:54.362Z,7
2022-09-15T15:53:54.502Z,7.2
2022-09-15T15:59:54.921Z,7.1
2022-09-15T16:05:54.811Z,6.8
2022-09-15T16:11:54.763Z,6.9
2022-09-15T16:17:54.520Z,7.2
2022-09-15T16:23:54.439Z,7.5
2022-09-15T16:29:54.544Z,7.2
2022-09-15T16:35:54.401Z,7.5
2022-09-15T16:41:54.492Z,7.4
2022-09-15T16:47:54.367Z,7.4
2022-09-15T16:53:54.556Z,8
2022-09-15T16:59:55.663Z,7.8
2022-09-15T17:05:54.725Z,7.9
2022-09-15T17:11:54.712Z,8
2022-09-15T17:17:54.504Z,8.1
2022-09-15T17:23:54.601Z,7.8
2022-09-15T17:29:54.873Z,7.6
2022-09-15T17:35:54.358Z,7.5
2022-09-15T17:41:55.163Z,7.1
2022-09-15T17:47:54.597Z,7
2022-09-15T17:53:54.396Z,6.8
2022-09-15T17:59:54.729Z,6.6
2022-09-15T18:05:54.595Z,6.6
2022-09-15T18:17:54.587Z,6.7
2022-09-15T18:23:54.984Z,6.7
2022-09-15T18:29:54.580Z,6.7
2022-09-15T18:35:54.366Z,6.6
2022-09-15T18:41:54.833Z,6.7
2022-09-15T18:47:54.490Z,6.9
2022-09-15T18:53:54.715Z,6.9
2022-09-15T18:59:54.694Z,6.9
2022-09-15T19:05:54.359Z,7.1
2022-09-15T19:11:55.361Z,7.2
2022-09-15T19:17:55.576Z,7
2022-09-15T19:23:54.989Z,7.1
2022-09-15T19:29:54.743Z,7.3
2022-09-15T19:36:10.577Z,7.3
2022-09-15T19:41:54.750Z,7.4
2022-09-15T19:47:54.553Z,7.2
2022-09-15T19:53:55.130Z,7.2
2022-09-15T19:59:54.751Z,7.2
2022-09-15T20:05:54.550Z,7.1
2022-09-15T20:11:54.630Z,7.2
2022-09-15T20:17:54.660Z,7.1
2022-09-15T20:23:54.933Z,7.1
2022-09-15T20:29:55.199Z,7
2022-09-15T20:35:54.885Z,7
2022-09-15T20:41:54.423Z,7.1
2022-09-15T20:47:54.659Z,6.9
2022-09-15T20:53:54.789Z,6.7
2022-09-15T20:59:54.689Z,6.8
2022-09-15T21:05:55.051Z,6.6
2022-09-15T21:11:54.760Z,6.6
2022-09-15T21:17:55.182Z,6.6
2022-09-15T21:23:54.927Z,6.6
2022-09-15T21:29:54.451Z,6.6
2022-09-15T21:35:54.395Z,6.4
2022-09-15T21:41:55.078Z,6.4
2022-09-15T21:47:54.543Z,6.4
2022-09-15T21:53:54.753Z,6.3
2022-09-15T21:59:54.989Z,6.2
2022-09-15T22:05:54.318Z,6.3
2022-09-15T22:11:54.597Z,6.3
2022-09-15T22:17:54.592Z,6.5
2022-09-15T22:23:54.849Z,6.4
2022-09-15T22:29:54.553Z,6.5
2022-09-15T22:35:54.870Z,6.4
2022-09-15T22:41:55.546Z,6.2
2022-09-15T22:47:54.961Z,6.2
2022-09-15T22:53:55.568Z,6.1
2022-09-15T22:59:55.350Z,6
2022-09-15T23:05:55.269Z,6
2022-09-15T23:11:54.591Z,5.9
2022-09-15T23:17:55.681Z,5.9
2022-09-15T23:23:54.811Z,5.8
2022-09-15T23:29:55.703Z,5.8
2022-09-15T23:35:54.526Z,5.7
2022-09-15T23:41:55.231Z,5.8
2022-09-15T23:47:54.853Z,5.9
2022-09-15T23:53:55.619Z,6
2022-09-15T23:59:57.245Z,6
